sensor_id;sensor_type;location;lat;lon;timestamp;temperature;humidity
72865;DHT22;61000;48.120;11.548;2023-07-31T00:02:07;17.30;99.90
72865;DHT22;61000;48.120;11.548;2023-07-31T00:04:34;17.40;99.90
72865;DHT22;61000;48.120;11.548;2023-07-31T00:07:01;17.30;99.90
72865;DHT22;61000;48.120;11.548;2023-07-31T00:09:31;17.20;99.90
72865;DHT22;61000;48.120;11.548;2023-07-31T00:11:57;17.20;99.90
72865;DHT22;61000;48.120;11.548;2023-07-31T00:14:24;17.20;99.90
72865;DHT22;61000;48.120;11.548;2023-07-31T00:16:51;17.10;99.90
72865;DHT22;61000;48.120;11.548;2023-07-31T00:19:18;17.10;99.90
72865;DHT22;61000;48.120;11.548;2023-07-31T00:21:45;17.10;99.90
72865;DHT22;61000;48.120;11.548;2023-07-31T00:24:12;17.10;99.90
72865;DHT22;61000;48.120;11.548;2023-07-31T00:26:40;17.00;99.90
72865;DHT22;61000;48.120;11.548;2023-07-31T00:29:07;17.00;99.90
72865;DHT22;61000;48.120;11.548;2023-07-31T00:31:34;17.00;99.90
72865;DHT22;61000;48.120;11.548;2023-07-31T00:34:00;17.00;99.90
72865;DHT22;61000;48.120;11.548;2023-07-31T00:36:27;17.00;99.90
72865;DHT22;61000;48.120;11.548;2023-07-31T00:38:54;16.90;99.90
72865;DHT22;61000;48.120;11.548;2023-07-31T00:41:21;17.00;99.90
72865;DHT22;61000;48.120;11.548;2023-07-31T00:43:49;16.90;99.90
72865;DHT22;61000;48.120;11.548;2023-07-31T00:46:17;16.90;99.90
72865;DHT22;61000;48.120;11.548;2023-07-31T00:48:44;16.80;99.90
72865;DHT22;61000;48.120;11.548;2023-07-31T00:51:11;16.80;99.90
72865;DHT22;61000;48.120;11.548;2023-07-31T00:53:39;16.70;99.90
72865;DHT22;61000;48.120;11.548;2023-07-31T00:56:06;16.80;99.90
72865;DHT22;61000;48.120;11.548;2023-07-31T00:58:33;16.70;99.90
72865;DHT22;61000;48.120;11.548;2023-07-31T01:01:02;16.70;99.90
72865;DHT22;61000;48.120;11.548;2023-07-31T01:03:29;16.70;99.90
72865;DHT22;61000;48.120;11.548;2023-07-31T01:06:06;16.60;99.90
72865;DHT22;61000;48.120;11.548;2023-07-31T01:08:42;16.70;99.90
72865;DHT22;61000;48.120;11.548;2023-07-31T01:11:15;16.70;99.90
72865;DHT22;61000;48.120;11.548;2023-07-31T01:13:44;16.60;99.90
72865;DHT22;61000;48.120;11.548;2023-07-31T01:16:12;16.70;99.90
72865;DHT22;61000;48.120;11.548;2023-07-31T01:18:39;16.50;99.90
72865;DHT22;61000;48.120;11.548;2023-07-31T01:21:23;16.60;99.90
72865;DHT22;61000;48.120;11.548;2023-07-31T01:24:10;16.60;99.90
72865;DHT22;61000;48.120;11.548;2023-07-31T01:26:44;16.50;99.90
72865;DHT22;61000;48.120;11.548;2023-07-31T01:29:17;16.60;99.90
72865;DHT22;61000;48.120;11.548;2023-07-31T01:31:48;16.50;99.90
72865;DHT22;61000;48.120;11.548;2023-07-31T01:34:17;16.50;99.90
72865;DHT22;61000;48.120;11.548;2023-07-31T01:36:45;16.50;99.90
72865;DHT22;61000;48.120;11.548;2023-07-31T01:39:12;16.50;99.90
72865;DHT22;61000;48.120;11.548;2023-07-31T01:41:42;16.50;99.90
72865;DHT22;61000;48.120;11.548;2023-07-31T01:44:09;16.50;99.90
72865;DHT22;61000;48.120;11.548;2023-07-31T01:46:36;16.40;99.90
72865;DHT22;61000;48.120;11.548;2023-07-31T01:49:02;16.50;99.90
72865;DHT22;61000;48.120;11.548;2023-07-31T01:51:31;16.60;99.90
72865;DHT22;61000;48.120;11.548;2023-07-31T01:53:59;16.50;99.90
72865;DHT22;61000;48.120;11.548;2023-07-31T01:56:26;16.50;99.90
72865;DHT22;61000;48.120;11.548;2023-07-31T01:58:54;16.50;99.90
72865;DHT22;61000;48.120;11.548;2023-07-31T02:01:21;16.50;99.90
72865;DHT22;61000;48.120;11.548;2023-07-31T02:03:49;16.50;99.90
72865;DHT22;61000;48.120;11.548;2023-07-31T02:06:15;16.50;99.90
72865;DHT22;61000;48.120;11.548;2023-07-31T02:08:43;16.50;99.90
72865;DHT22;61000;48.120;11.548;2023-07-31T02:11:12;16.60;99.90
72865;DHT22;61000;48.120;11.548;2023-07-31T02:13:39;16.60;99.90
72865;DHT22;61000;48.120;11.548;2023-07-31T02:16:07;16.60;99.90
72865;DHT22;61000;48.120;11.548;2023-07-31T02:18:34;16.60;99.90
72865;DHT22;61000;48.120;11.548;2023-07-31T02:21:01;16.60;99.90
72865;DHT22;61000;48.120;11.548;2023-07-31T02:23:28;16.60;99.90
72865;DHT22;61000;48.120;11.548;2023-07-31T02:25:55;16.60;99.90
72865;DHT22;61000;48.120;11.548;2023-07-31T02:28:21;16.60;99.90
72865;DHT22;61000;48.120;11.548;2023-07-31T02:30:50;16.60;99.90
72865;DHT22;61000;48.120;11.548;2023-07-31T02:33:19;16.60;99.90
72865;DHT22;61000;48.120;11.548;2023-07-31T02:35:46;16.60;99.90
72865;DHT22;61000;48.120;11.548;2023-07-31T02:38:12;16.60;99.90
72865;DHT22;61000;48.120;11.548;2023-07-31T02:40:41;16.60;99.90
72865;DHT22;61000;48.120;11.548;2023-07-31T02:43:08;16.60;99.90
72865;DHT22;61000;48.120;11.548;2023-07-31T02:45:36;16.60;99.90
72865;DHT22;61000;48.120;11.548;2023-07-31T02:48:03;16.60;99.90
72865;DHT22;61000;48.120;11.548;2023-07-31T02:50:31;16.60;99.90
72865;DHT22;61000;48.120;11.548;2023-07-31T02:52:58;16.60;99.90
72865;DHT22;61000;48.120;11.548;2023-07-31T02:55:38;16.60;99.90
72865;DHT22;61000;48.120;11.548;2023-07-31T02:58:05;16.60;99.90
72865;DHT22;61000;48.120;11.548;2023-07-31T03:00:32;16.60;99.90
72865;DHT22;61000;48.120;11.548;2023-07-31T03:02:59;16.50;99.90
72865;DHT22;61000;48.120;11.548;2023-07-31T03:05:27;16.50;99.90
72865;DHT22;61000;48.120;11.548;2023-07-31T03:07:55;16.40;99.90
72865;DHT22;61000;48.120;11.548;2023-07-31T03:10:23;16.40;99.90
72865;DHT22;61000;48.120;11.548;2023-07-31T03:12:50;16.30;99.90
72865;DHT22;61000;48.120;11.548;2023-07-31T03:15:16;16.30;99.90
72865;DHT22;61000;48.120;11.548;2023-07-31T03:17:43;16.30;99.90
72865;DHT22;61000;48.120;11.548;2023-07-31T03:20:11;16.30;99.90
72865;DHT22;61000;48.120;11.548;2023-07-31T03:22:38;16.10;99.90
72865;DHT22;61000;48.120;11.548;2023-07-31T03:25:07;16.20;99.90
72865;DHT22;61000;48.120;11.548;2023-07-31T03:27:35;16.10;99.90
72865;DHT22;61000;48.120;11.548;2023-07-31T03:30:02;16.10;99.90
72865;DHT22;61000;48.120;11.548;2023-07-31T03:32:29;16.00;99.90
72865;DHT22;61000;48.120;11.548;2023-07-31T03:34:56;16.00;99.90
72865;DHT22;61000;48.120;11.548;2023-07-31T03:37:24;16.10;99.90
72865;DHT22;61000;48.120;11.548;2023-07-31T03:39:53;16.00;99.90
72865;DHT22;61000;48.120;11.548;2023-07-31T03:42:21;16.00;99.90
72865;DHT22;61000;48.120;11.548;2023-07-31T03:44:50;16.00;99.90
72865;DHT22;61000;48.120;11.548;2023-07-31T03:47:17;15.90;99.90
72865;DHT22;61000;48.120;11.548;2023-07-31T03:49:45;15.90;99.90
72865;DHT22;61000;48.120;11.548;2023-07-31T03:52:12;15.90;99.90
72865;DHT22;61000;48.120;11.548;2023-07-31T03:54:39;15.80;99.90
72865;DHT22;61000;48.120;11.548;2023-07-31T03:57:06;15.90;99.90
72865;DHT22;61000;48.120;11.548;2023-07-31T03:59:34;15.90;99.90
72865;DHT22;61000;48.120;11.548;2023-07-31T04:02:01;15.90;99.90
72865;DHT22;61000;48.120;11.548;2023-07-31T04:04:28;15.80;99.90
72865;DHT22;61000;48.120;11.548;2023-07-31T04:06:55;15.90;99.90
72865;DHT22;61000;48.120;11.548;2023-07-31T04:09:21;15.90;99.90
72865;DHT22;61000;48.120;11.548;2023-07-31T04:11:48;16.00;99.90
72865;DHT22;61000;48.120;11.548;2023-07-31T04:14:15;16.00;99.90
72865;DHT22;61000;48.120;11.548;2023-07-31T04:16:43;16.00;99.90
72865;DHT22;61000;48.120;11.548;2023-07-31T04:19:10;16.00;99.90
72865;DHT22;61000;48.120;11.548;2023-07-31T04:21:42;16.00;99.90
72865;DHT22;61000;48.120;11.548;2023-07-31T04:24:08;16.00;99.90
72865;DHT22;61000;48.120;11.548;2023-07-31T04:26:35;16.00;99.90
72865;DHT22;61000;48.120;11.548;2023-07-31T04:29:02;16.10;99.90
72865;DHT22;61000;48.120;11.548;2023-07-31T04:31:29;15.90;99.90
72865;DHT22;61000;48.120;11.548;2023-07-31T04:33:57;16.00;99.90
72865;DHT22;61000;48.120;11.548;2023-07-31T04:36:24;16.00;99.90
72865;DHT22;61000;48.120;11.548;2023-07-31T04:38:51;15.90;99.90
72865;DHT22;61000;48.120;11.548;2023-07-31T04:41:18;16.10;99.90
72865;DHT22;61000;48.120;11.548;2023-07-31T04:43:45;15.90;99.90
72865;DHT22;61000;48.120;11.548;2023-07-31T04:46:12;15.90;99.90
72865;DHT22;61000;48.120;11.548;2023-07-31T04:48:38;15.90;99.90
72865;DHT22;61000;48.120;11.548;2023-07-31T04:51:07;16.00;99.90
72865;DHT22;61000;48.120;11.548;2023-07-31T04:53:34;15.90;99.90
72865;DHT22;61000;48.120;11.548;2023-07-31T04:56:02;15.90;99.90
72865;DHT22;61000;48.120;11.548;2023-07-31T04:58:29;15.90;99.90
72865;DHT22;61000;48.120;11.548;2023-07-31T05:00:55;15.90;99.90
72865;DHT22;61000;48.120;11.548;2023-07-31T05:03:22;15.90;99.90
72865;DHT22;61000;48.120;11.548;2023-07-31T05:05:50;16.00;99.90
72865;DHT22;61000;48.120;11.548;2023-07-31T05:08:18;16.00;99.90
72865;DHT22;61000;48.120;11.548;2023-07-31T05:10:45;16.10;99.90
72865;DHT22;61000;48.120;11.548;2023-07-31T05:13:12;16.10;99.90
72865;DHT22;61000;48.120;11.548;2023-07-31T05:15:38;16.10;99.90
72865;DHT22;61000;48.120;11.548;2023-07-31T05:18:05;16.20;99.90
72865;DHT22;61000;48.120;11.548;2023-07-31T05:20:32;16.30;99.90
72865;DHT22;61000;48.120;11.548;2023-07-31T05:22:59;16.40;99.90
72865;DHT22;61000;48.120;11.548;2023-07-31T05:25:27;16.40;99.90
72865;DHT22;61000;48.120;11.548;2023-07-31T05:27:54;16.50;99.90
72865;DHT22;61000;48.120;11.548;2023-07-31T05:30:21;16.60;99.90
72865;DHT22;61000;48.120;11.548;2023-07-31T05:32:48;16.80;99.90
72865;DHT22;61000;48.120;11.548;2023-07-31T05:35:15;16.90;99.90
72865;DHT22;61000;48.120;11.548;2023-07-31T05:37:42;17.00;99.90
72865;DHT22;61000;48.120;11.548;2023-07-31T05:40:09;17.20;99.90
72865;DHT22;61000;48.120;11.548;2023-07-31T05:42:37;17.20;99.90
72865;DHT22;61000;48.120;11.548;2023-07-31T05:45:05;17.40;99.90
72865;DHT22;61000;48.120;11.548;2023-07-31T05:47:33;17.50;99.90
72865;DHT22;61000;48.120;11.548;2023-07-31T05:50:00;17.60;99.90
72865;DHT22;61000;48.120;11.548;2023-07-31T05:52:26;17.70;99.90
72865;DHT22;61000;48.120;11.548;2023-07-31T05:54:54;17.80;99.90
72865;DHT22;61000;48.120;11.548;2023-07-31T05:57:27;17.80;99.90
72865;DHT22;61000;48.120;11.548;2023-07-31T06:14:44;18.80;99.90
72865;DHT22;61000;48.120;11.548;2023-07-31T06:17:12;18.20;99.90
72865;DHT22;61000;48.120;11.548;2023-07-31T06:19:39;18.30;99.90
72865;DHT22;61000;48.120;11.548;2023-07-31T06:22:12;18.30;99.90
72865;DHT22;61000;48.120;11.548;2023-07-31T06:24:55;18.40;99.90
72865;DHT22;61000;48.120;11.548;2023-07-31T06:27:23;18.40;99.90
72865;DHT22;61000;48.120;11.548;2023-07-31T06:29:50;18.50;99.90
72865;DHT22;61000;48.120;11.548;2023-07-31T06:32:20;18.50;99.90
72865;DHT22;61000;48.120;11.548;2023-07-31T06:34:47;18.50;99.90
72865;DHT22;61000;48.120;11.548;2023-07-31T06:37:14;18.50;99.90
72865;DHT22;61000;48.120;11.548;2023-07-31T06:39:41;18.50;99.90
72865;DHT22;61000;48.120;11.548;2023-07-31T06:42:08;18.50;99.90
72865;DHT22;61000;48.120;11.548;2023-07-31T06:44:34;18.50;99.90
72865;DHT22;61000;48.120;11.548;2023-07-31T06:47:01;18.50;99.90
72865;DHT22;61000;48.120;11.548;2023-07-31T06:49:30;18.60;99.90
72865;DHT22;61000;48.120;11.548;2023-07-31T06:51:56;18.60;99.90
72865;DHT22;61000;48.120;11.548;2023-07-31T06:54:23;18.70;99.90
72865;DHT22;61000;48.120;11.548;2023-07-31T06:56:55;18.70;99.80
72865;DHT22;61000;48.120;11.548;2023-07-31T06:59:28;18.80;99.80
72865;DHT22;61000;48.120;11.548;2023-07-31T07:01:55;18.70;99.70
72865;DHT22;61000;48.120;11.548;2023-07-31T07:04:21;18.90;99.90
72865;DHT22;61000;48.120;11.548;2023-07-31T07:06:51;19.00;99.90
72865;DHT22;61000;48.120;11.548;2023-07-31T07:09:18;19.10;99.90
72865;DHT22;61000;48.120;11.548;2023-07-31T07:11:45;19.30;99.90
72865;DHT22;61000;48.120;11.548;2023-07-31T07:14:12;19.20;99.90
72865;DHT22;61000;48.120;11.548;2023-07-31T07:16:38;19.50;99.90
72865;DHT22;61000;48.120;11.548;2023-07-31T07:19:06;19.40;99.50
72865;DHT22;61000;48.120;11.548;2023-07-31T07:21:33;19.40;99.20
72865;DHT22;61000;48.120;11.548;2023-07-31T07:24:01;19.40;98.80
72865;DHT22;61000;48.120;11.548;2023-07-31T07:26:28;19.40;99.30
72865;DHT22;61000;48.120;11.548;2023-07-31T07:28:55;19.30;98.80
72865;DHT22;61000;48.120;11.548;2023-07-31T07:31:23;19.30;98.60
72865;DHT22;61000;48.120;11.548;2023-07-31T07:33:50;19.50;98.60
72865;DHT22;61000;48.120;11.548;2023-07-31T07:36:16;19.40;98.30
72865;DHT22;61000;48.120;11.548;2023-07-31T07:38:43;19.40;98.30
72865;DHT22;61000;48.120;11.548;2023-07-31T07:41:11;19.40;98.10
72865;DHT22;61000;48.120;11.548;2023-07-31T07:43:39;19.60;98.30
72865;DHT22;61000;48.120;11.548;2023-07-31T07:46:05;19.80;97.80
72865;DHT22;61000;48.120;11.548;2023-07-31T07:48:32;19.90;97.60
72865;DHT22;61000;48.120;11.548;2023-07-31T07:50:59;19.90;97.30
72865;DHT22;61000;48.120;11.548;2023-07-31T07:53:26;20.20;97.00
72865;DHT22;61000;48.120;11.548;2023-07-31T07:55:53;20.20;96.90
72865;DHT22;61000;48.120;11.548;2023-07-31T07:58:21;20.20;96.30
72865;DHT22;61000;48.120;11.548;2023-07-31T08:00:51;20.10;96.40
72865;DHT22;61000;48.120;11.548;2023-07-31T08:03:18;20.10;96.50
72865;DHT22;61000;48.120;11.548;2023-07-31T08:05:45;20.10;96.40
72865;DHT22;61000;48.120;11.548;2023-07-31T08:08:14;20.20;96.50
72865;DHT22;61000;48.120;11.548;2023-07-31T08:10:42;20.30;95.90
72865;DHT22;61000;48.120;11.548;2023-07-31T08:13:09;20.40;95.90
72865;DHT22;61000;48.120;11.548;2023-07-31T08:15:38;20.50;95.50
72865;DHT22;61000;48.120;11.548;2023-07-31T08:18:07;20.60;96.10
72865;DHT22;61000;48.120;11.548;2023-07-31T08:20:34;20.60;95.30
72865;DHT22;61000;48.120;11.548;2023-07-31T08:23:01;20.60;95.40
72865;DHT22;61000;48.120;11.548;2023-07-31T08:25:28;20.60;95.10
72865;DHT22;61000;48.120;11.548;2023-07-31T08:27:54;20.80;95.30
72865;DHT22;61000;48.120;11.548;2023-07-31T08:30:22;21.00;94.70
72865;DHT22;61000;48.120;11.548;2023-07-31T08:32:50;21.10;95.30
72865;DHT22;61000;48.120;11.548;2023-07-31T08:35:17;21.30;96.00
72865;DHT22;61000;48.120;11.548;2023-07-31T08:37:44;21.20;94.30
72865;DHT22;61000;48.120;11.548;2023-07-31T08:40:11;21.20;95.90
72865;DHT22;61000;48.120;11.548;2023-07-31T08:42:44;21.10;95.70
72865;DHT22;61000;48.120;11.548;2023-07-31T08:45:13;21.00;93.30
72865;DHT22;61000;48.120;11.548;2023-07-31T08:47:42;20.90;93.50
72865;DHT22;61000;48.120;11.548;2023-07-31T08:50:12;20.90;94.00
72865;DHT22;61000;48.120;11.548;2023-07-31T08:52:39;20.70;94.10
72865;DHT22;61000;48.120;11.548;2023-07-31T08:55:07;20.60;96.10
72865;DHT22;61000;48.120;11.548;2023-07-31T08:57:35;20.40;94.70
72865;DHT22;61000;48.120;11.548;2023-07-31T09:00:03;20.20;94.60
72865;DHT22;61000;48.120;11.548;2023-07-31T09:02:35;20.20;95.50
72865;DHT22;61000;48.120;11.548;2023-07-31T09:07:34;20.30;99.90
72865;DHT22;61000;48.120;11.548;2023-07-31T09:10:02;20.40;99.90
72865;DHT22;61000;48.120;11.548;2023-07-31T09:12:29;20.50;99.90
72865;DHT22;61000;48.120;11.548;2023-07-31T09:14:56;20.60;99.90
72865;DHT22;61000;48.120;11.548;2023-07-31T09:17:29;20.80;99.90
72865;DHT22;61000;48.120;11.548;2023-07-31T09:19:56;20.90;97.30
72865;DHT22;61000;48.120;11.548;2023-07-31T09:22:31;21.10;93.60
72865;DHT22;61000;48.120;11.548;2023-07-31T09:25:14;21.50;93.10
72865;DHT22;61000;48.120;11.548;2023-07-31T09:27:47;21.70;92.40
72865;DHT22;61000;48.120;11.548;2023-07-31T09:30:14;22.10;91.90
72865;DHT22;61000;48.120;11.548;2023-07-31T09:35:20;22.50;91.10
72865;DHT22;61000;48.120;11.548;2023-07-31T09:37:51;22.70;91.50
72865;DHT22;61000;48.120;11.548;2023-07-31T09:40:30;22.90;91.40
72865;DHT22;61000;48.120;11.548;2023-07-31T09:42:58;23.00;91.30
72865;DHT22;61000;48.120;11.548;2023-07-31T09:45:26;23.00;90.20
72865;DHT22;61000;48.120;11.548;2023-07-31T09:47:53;23.10;90.70
72865;DHT22;61000;48.120;11.548;2023-07-31T09:50:22;23.50;90.20
72865;DHT22;61000;48.120;11.548;2023-07-31T09:52:49;23.90;89.20
72865;DHT22;61000;48.120;11.548;2023-07-31T09:55:16;23.60;88.60
72865;DHT22;61000;48.120;11.548;2023-07-31T09:57:47;24.20;88.10
72865;DHT22;61000;48.120;11.548;2023-07-31T10:00:18;24.30;88.10
72865;DHT22;61000;48.120;11.548;2023-07-31T10:02:48;24.50;85.10
72865;DHT22;61000;48.120;11.548;2023-07-31T10:05:17;24.60;85.70
72865;DHT22;61000;48.120;11.548;2023-07-31T10:07:49;24.80;86.00
72865;DHT22;61000;48.120;11.548;2023-07-31T10:10:20;25.20;84.90
72865;DHT22;61000;48.120;11.548;2023-07-31T10:12:48;25.60;83.40
72865;DHT22;61000;48.120;11.548;2023-07-31T10:15:15;25.40;81.70
72865;DHT22;61000;48.120;11.548;2023-07-31T10:17:43;25.00;82.40
72865;DHT22;61000;48.120;11.548;2023-07-31T10:20:10;24.60;82.10
72865;DHT22;61000;48.120;11.548;2023-07-31T10:22:38;24.80;84.60
72865;DHT22;61000;48.120;11.548;2023-07-31T10:25:08;25.50;82.30
72865;DHT22;61000;48.120;11.548;2023-07-31T10:27:35;25.40;79.70
72865;DHT22;61000;48.120;11.548;2023-07-31T10:30:05;25.40;79.60
72865;DHT22;61000;48.120;11.548;2023-07-31T10:32:33;25.50;82.00
72865;DHT22;61000;48.120;11.548;2023-07-31T10:35:01;25.10;79.10
72865;DHT22;61000;48.120;11.548;2023-07-31T10:37:36;25.00;80.80
72865;DHT22;61000;48.120;11.548;2023-07-31T10:40:05;25.10;79.40
72865;DHT22;61000;48.120;11.548;2023-07-31T10:42:34;25.20;80.50
72865;DHT22;61000;48.120;11.548;2023-07-31T10:45:05;25.20;81.60
72865;DHT22;61000;48.120;11.548;2023-07-31T10:47:37;25.00;79.40
72865;DHT22;61000;48.120;11.548;2023-07-31T10:50:17;24.10;80.90
72865;DHT22;61000;48.120;11.548;2023-07-31T10:52:49;23.80;82.50
72865;DHT22;61000;48.120;11.548;2023-07-31T10:55:30;23.50;81.80
72865;DHT22;61000;48.120;11.548;2023-07-31T10:58:05;23.50;82.00
72865;DHT22;61000;48.120;11.548;2023-07-31T11:00:34;23.30;83.00
72865;DHT22;61000;48.120;11.548;2023-07-31T11:03:04;23.40;82.90
72865;DHT22;61000;48.120;11.548;2023-07-31T11:05:51;23.30;83.00
72865;DHT22;61000;48.120;11.548;2023-07-31T11:08:21;23.30;83.50
72865;DHT22;61000;48.120;11.548;2023-07-31T11:10:50;23.20;84.30
72865;DHT22;61000;48.120;11.548;2023-07-31T11:13:18;23.10;84.70
72865;DHT22;61000;48.120;11.548;2023-07-31T11:15:46;23.30;83.80
72865;DHT22;61000;48.120;11.548;2023-07-31T11:18:13;23.60;84.90
72865;DHT22;61000;48.120;11.548;2023-07-31T11:20:42;24.00;83.90
72865;DHT22;61000;48.120;11.548;2023-07-31T11:23:09;24.00;81.90
72865;DHT22;61000;48.120;11.548;2023-07-31T11:25:37;24.10;82.70
72865;DHT22;61000;48.120;11.548;2023-07-31T11:28:09;24.00;81.50
72865;DHT22;61000;48.120;11.548;2023-07-31T11:30:36;24.10;83.30
72865;DHT22;61000;48.120;11.548;2023-07-31T11:33:06;24.00;82.80
72865;DHT22;61000;48.120;11.548;2023-07-31T11:35:34;23.80;80.70
72865;DHT22;61000;48.120;11.548;2023-07-31T11:38:01;23.70;82.40
72865;DHT22;61000;48.120;11.548;2023-07-31T11:40:28;23.50;81.90
72865;DHT22;61000;48.120;11.548;2023-07-31T11:42:56;23.50;84.30
72865;DHT22;61000;48.120;11.548;2023-07-31T11:45:25;23.30;83.80
72865;DHT22;61000;48.120;11.548;2023-07-31T11:47:54;23.20;83.40
72865;DHT22;61000;48.120;11.548;2023-07-31T11:50:24;23.30;83.50
72865;DHT22;61000;48.120;11.548;2023-07-31T11:52:55;23.40;83.70
72865;DHT22;61000;48.120;11.548;2023-07-31T11:55:24;23.40;82.00
72865;DHT22;61000;48.120;11.548;2023-07-31T11:57:51;23.60;83.50
72865;DHT22;61000;48.120;11.548;2023-07-31T12:00:19;23.70;83.80
72865;DHT22;61000;48.120;11.548;2023-07-31T12:02:47;23.70;82.40
72865;DHT22;61000;48.120;11.548;2023-07-31T12:05:14;23.70;83.00
72865;DHT22;61000;48.120;11.548;2023-07-31T12:07:46;23.90;80.10
72865;DHT22;61000;48.120;11.548;2023-07-31T12:10:27;23.80;79.90
72865;DHT22;61000;48.120;11.548;2023-07-31T12:13:03;23.70;79.40
72865;DHT22;61000;48.120;11.548;2023-07-31T12:15:42;23.70;79.80
72865;DHT22;61000;48.120;11.548;2023-07-31T12:18:10;23.90;78.50
72865;DHT22;61000;48.120;11.548;2023-07-31T12:20:41;24.00;78.10
72865;DHT22;61000;48.120;11.548;2023-07-31T12:23:15;24.00;78.70
72865;DHT22;61000;48.120;11.548;2023-07-31T12:25:42;23.90;78.10
72865;DHT22;61000;48.120;11.548;2023-07-31T12:28:09;23.90;78.10
72865;DHT22;61000;48.120;11.548;2023-07-31T12:30:39;23.80;78.40
72865;DHT22;61000;48.120;11.548;2023-07-31T12:33:12;24.20;79.20
72865;DHT22;61000;48.120;11.548;2023-07-31T12:35:43;24.30;77.80
72865;DHT22;61000;48.120;11.548;2023-07-31T12:38:11;24.50;79.30
72865;DHT22;61000;48.120;11.548;2023-07-31T12:40:40;24.50;77.30
72865;DHT22;61000;48.120;11.548;2023-07-31T12:43:07;24.30;77.10
72865;DHT22;61000;48.120;11.548;2023-07-31T12:45:34;24.20;77.80
72865;DHT22;61000;48.120;11.548;2023-07-31T12:48:01;24.00;78.50
72865;DHT22;61000;48.120;11.548;2023-07-31T12:50:28;23.90;78.60
72865;DHT22;61000;48.120;11.548;2023-07-31T12:52:56;24.00;79.00
72865;DHT22;61000;48.120;11.548;2023-07-31T12:55:23;24.00;78.90
72865;DHT22;61000;48.120;11.548;2023-07-31T12:57:52;24.10;78.40
72865;DHT22;61000;48.120;11.548;2023-07-31T13:00:19;24.10;78.60
72865;DHT22;61000;48.120;11.548;2023-07-31T13:02:46;24.20;78.70
72865;DHT22;61000;48.120;11.548;2023-07-31T13:05:13;24.20;79.40
72865;DHT22;61000;48.120;11.548;2023-07-31T13:07:40;24.40;79.20
72865;DHT22;61000;48.120;11.548;2023-07-31T13:10:08;24.40;79.00
72865;DHT22;61000;48.120;11.548;2023-07-31T13:12:35;24.40;78.10
72865;DHT22;61000;48.120;11.548;2023-07-31T13:15:03;24.50;78.00
72865;DHT22;61000;48.120;11.548;2023-07-31T13:17:30;24.70;76.80
72865;DHT22;61000;48.120;11.548;2023-07-31T13:19:56;24.60;77.30
72865;DHT22;61000;48.120;11.548;2023-07-31T13:22:23;24.50;77.90
72865;DHT22;61000;48.120;11.548;2023-07-31T13:24:50;24.60;77.70
72865;DHT22;61000;48.120;11.548;2023-07-31T13:27:17;24.60;75.40
72865;DHT22;61000;48.120;11.548;2023-07-31T13:29:46;24.50;75.90
72865;DHT22;61000;48.120;11.548;2023-07-31T13:32:15;24.40;75.60
72865;DHT22;61000;48.120;11.548;2023-07-31T13:34:42;24.20;76.50
72865;DHT22;61000;48.120;11.548;2023-07-31T13:37:09;24.10;77.20
72865;DHT22;61000;48.120;11.548;2023-07-31T13:39:36;24.30;77.50
72865;DHT22;61000;48.120;11.548;2023-07-31T13:42:03;24.60;77.30
72865;DHT22;61000;48.120;11.548;2023-07-31T13:44:32;25.00;76.50
72865;DHT22;61000;48.120;11.548;2023-07-31T13:46:59;25.40;75.90
72865;DHT22;61000;48.120;11.548;2023-07-31T13:49:28;25.60;74.70
72865;DHT22;61000;48.120;11.548;2023-07-31T13:51:55;25.50;74.00
72865;DHT22;61000;48.120;11.548;2023-07-31T13:54:22;25.30;74.80
72865;DHT22;61000;48.120;11.548;2023-07-31T13:56:49;25.00;74.10
72865;DHT22;61000;48.120;11.548;2023-07-31T13:59:16;24.80;75.00
72865;DHT22;61000;48.120;11.548;2023-07-31T14:01:44;25.00;76.40
72865;DHT22;61000;48.120;11.548;2023-07-31T14:04:11;24.80;75.00
72865;DHT22;61000;48.120;11.548;2023-07-31T14:06:39;24.80;77.30
72865;DHT22;61000;48.120;11.548;2023-07-31T14:09:06;25.10;76.50
72865;DHT22;61000;48.120;11.548;2023-07-31T14:11:34;25.30;77.00
72865;DHT22;61000;48.120;11.548;2023-07-31T14:14:01;25.40;76.70
72865;DHT22;61000;48.120;11.548;2023-07-31T14:16:28;25.40;75.70
72865;DHT22;61000;48.120;11.548;2023-07-31T14:18:55;25.20;73.80
72865;DHT22;61000;48.120;11.548;2023-07-31T14:21:24;25.00;72.80
72865;DHT22;61000;48.120;11.548;2023-07-31T14:23:53;24.90;73.00
72865;DHT22;61000;48.120;11.548;2023-07-31T14:26:19;24.80;74.40
72865;DHT22;61000;48.120;11.548;2023-07-31T14:28:48;24.80;74.20
72865;DHT22;61000;48.120;11.548;2023-07-31T14:31:15;24.70;74.20
72865;DHT22;61000;48.120;11.548;2023-07-31T14:33:42;24.60;74.80
72865;DHT22;61000;48.120;11.548;2023-07-31T14:36:09;24.40;74.20
72865;DHT22;61000;48.120;11.548;2023-07-31T14:38:35;24.60;75.30
72865;DHT22;61000;48.120;11.548;2023-07-31T14:41:04;24.80;74.30
72865;DHT22;61000;48.120;11.548;2023-07-31T14:43:30;24.70;74.40
72865;DHT22;61000;48.120;11.548;2023-07-31T14:45:58;24.70;74.30
72865;DHT22;61000;48.120;11.548;2023-07-31T14:48:25;24.80;75.40
72865;DHT22;61000;48.120;11.548;2023-07-31T14:50:53;24.90;75.10
72865;DHT22;61000;48.120;11.548;2023-07-31T14:53:19;24.90;75.50
72865;DHT22;61000;48.120;11.548;2023-07-31T14:55:50;24.60;75.30
72865;DHT22;61000;48.120;11.548;2023-07-31T14:58:18;24.60;75.60
72865;DHT22;61000;48.120;11.548;2023-07-31T15:00:45;24.60;75.60
72865;DHT22;61000;48.120;11.548;2023-07-31T15:03:12;24.60;75.00
72865;DHT22;61000;48.120;11.548;2023-07-31T15:05:38;24.50;74.30
72865;DHT22;61000;48.120;11.548;2023-07-31T15:08:05;24.30;74.40
72865;DHT22;61000;48.120;11.548;2023-07-31T15:10:32;24.30;75.20
72865;DHT22;61000;48.120;11.548;2023-07-31T15:12:59;24.40;76.60
72865;DHT22;61000;48.120;11.548;2023-07-31T15:15:28;24.30;74.60
72865;DHT22;61000;48.120;11.548;2023-07-31T15:17:55;24.20;75.20
72865;DHT22;61000;48.120;11.548;2023-07-31T15:20:22;24.20;75.60
72865;DHT22;61000;48.120;11.548;2023-07-31T15:22:49;24.20;76.40
72865;DHT22;61000;48.120;11.548;2023-07-31T15:25:16;24.30;77.00
72865;DHT22;61000;48.120;11.548;2023-07-31T15:27:43;24.20;77.30
72865;DHT22;61000;48.120;11.548;2023-07-31T15:30:10;24.20;78.50
72865;DHT22;61000;48.120;11.548;2023-07-31T15:32:39;24.30;77.90
72865;DHT22;61000;48.120;11.548;2023-07-31T15:35:06;24.20;78.00
72865;DHT22;61000;48.120;11.548;2023-07-31T15:37:33;24.20;77.30
72865;DHT22;61000;48.120;11.548;2023-07-31T15:40:00;24.10;76.70
72865;DHT22;61000;48.120;11.548;2023-07-31T15:42:27;24.00;77.50